Latest Weather Observations for Bundaberg

IDQ60801

Issued at 10:12 pm EST Friday 14 December 2018 (issued every 10 minutes, with the page automatically refreshed every 10 minutes)

About weather observations | Map of weather stations | Latest weather observations for QLD | Other Formats
Station Details ID: 039128 Name: BUNDABERG AERO Lat: -24.91 Lon: 152.32 Height: 30.82 m
Data from the previous 72 hours. | See also: Recent months at Bundaberg
Date/Time
EST
Temp
°C
App
Temp
°C
Dew
Point
°C
Rel
Hum
%
Delta-T
°C
Wind Press
QNH
hPa
Press
MSL
hPa
Rain since
9am
mm
Dir  Spd
km/h
Gust
km/h
Spd
kts
Gust
kts
14/10:00pm 25.5 28.3 24.3 93 0.8 NNE 17 20 9 11 1006.3 1006.1 3.0
14/09:30pm 25.5 28.8 24.5 94 0.7 NNE 15 19 8 10 1006.1 1005.9 3.0
14/09:00pm 25.2 28.9 24.5 96 0.5 NNE 13 17 7 9 1005.8 1005.6 3.0
14/08:30pm 25.0 28.2 24.3 96 0.5 NE 15 20 8 11 1005.6 1005.4 3.0
14/08:00pm 24.9 28.0 24.2 96 0.5 NE 15 22 8 12 1004.8 1004.6 3.0
14/07:30pm 24.6 26.5 23.7 95 0.6 NE 20 26 11 14 1004.9 1004.7 3.0
14/07:00pm 24.7 26.3 23.8 95 0.6 NNE 22 32 12 17 1004.6 1004.4 3.0
14/06:45pm 25.0 27.4 24.3 96 0.5 NNE 19 26 10 14 1004.5 1004.3 3.0
14/06:30pm 25.0 27.1 24.1 95 0.6 NNE 20 28 11 15 1004.5 1004.3 3.0
14/06:06pm 25.3 27.0 23.4 89 1.3 NE 20 26 11 14 1004.4 1004.2 2.0
14/06:00pm 25.6 26.7 23.1 86 1.7 NE 22 28 12 15 1004.4 1004.2 1.8
14/05:30pm 25.8 27.1 23.3 86 1.7 NNE 22 32 12 17 1004.3 1004.1 1.8
14/05:00pm 26.0 26.5 23.3 85 1.8 NNE 26 33 14 18 1003.9 1003.7 1.8
14/04:30pm 26.3 26.4 23.2 83 2.1 NNE 28 37 15 20 1003.5 1003.3 1.8
14/04:00pm 27.1 27.1 23.1 79 2.7 NNE 28 33 15 18 1003.2 1003.0 1.8
14/03:30pm 27.9 28.9 24.1 80 2.6 NNE 26 32 14 17 1002.9 1002.7 1.6
14/03:00pm 25.9 27.3 23.6 87 1.6 NE 22 30 12 16 1003.5 1003.3 1.6
14/02:30pm 25.5 26.4 23.4 88 1.4 NNE 24 32 13 17 1003.9 1003.7 1.6
14/02:29pm 25.5 26.4 23.4 88 1.4 NNE 24 32 13 17 1003.9 1003.7 1.6
14/02:28pm 25.4 26.7 23.3 88 1.4 NNE 22 32 12 17 1003.9 1003.7 1.6
14/02:00pm 25.6 25.6 23.1 86 1.7 N 28 41 15 22 1004.2 1004.0 1.4
14/01:30pm 25.9 25.3 23.4 86 1.7 NNE 32 43 17 23 1004.3 1004.1 1.4
14/01:26pm 26.0 25.5 22.9 83 2.1 N 30 41 16 22 1004.3 1004.1 1.4
14/01:00pm 28.0 28.4 23.2 75 3.3 N 26 41 14 22 1004.5 1004.3 1.4
14/12:59pm 28.1 28.5 23.2 74 3.4 N 26 41 14 22 1004.5 1004.3 1.4
14/12:30pm 27.2 27.9 23.0 78 2.9 N 24 35 13 19 1004.7 1004.5 1.4
14/12:00pm 25.8 26.4 23.5 87 1.6 N 26 37 14 20 1004.9 1004.7 1.4
14/11:30am 26.0 26.6 23.5 86 1.7 N 26 35 14 19 1004.9 1004.7 1.2
14/11:00am 26.5 26.8 23.6 84 2.0 N 28 37 15 20 1004.9 1004.7 1.2
14/10:30am 25.3 26.8 24.3 94 0.7 N 24 35 13 19 1005.4 1005.2 1.2
14/10:00am 25.1 25.8 23.7 92 1.0 NNE 26 37 14 20 1005.4 1005.2 1.0
14/09:30am 25.6 25.6 23.7 89 1.3 NNE 30 39 16 21 1005.4 1005.2 0.0
14/09:00am 25.9 26.3 23.2 85 1.8 N 26 37 14 20 1005.7 1005.5 0.2
14/08:30am 26.0 26.5 23.3 85 1.8 NNE 26 41 14 22 1005.8 1005.6 0.2
14/08:00am 26.0 27.8 23.5 86 1.7 NNE 20 28 11 15 1005.9 1005.7 0.2
14/07:30am 26.0 28.3 23.5 86 1.7 N 17 22 9 12 1006.1 1005.9 0.0
14/07:00am 25.7 27.5 23.6 88 1.4 N 20 26 11 14 1006.0 1005.8 0.0
14/06:30am 25.5 27.9 23.6 89 1.3 N 17 24 9 13 1005.8 1005.6 0.0
14/06:00am 25.7 27.9 23.2 86 1.7 N 17 20 9 11 1005.7 1005.5 0.0
14/05:30am 25.5 27.2 23.0 86 1.7 N 19 28 10 15 1005.6 1005.4 0.0
14/05:00am 25.2 26.7 23.1 88 1.4 N 20 30 11 16 1005.5 1005.3 0.0
14/04:32am 25.6 27.1 22.7 84 2.0 N 19 26 10 14 1005.3 1005.1 0.0
14/04:30am 25.6 27.1 22.7 84 2.0 N 19 26 10 14 1005.3 1005.1 0.0
14/04:00am 25.5 27.2 22.4 83 2.1 N 17 22 9 12 1005.2 1005.0 0.0
14/03:30am 25.5 27.5 22.2 82 2.2 N 15 20 8 11 1005.4 1005.2 0.0
14/03:00am 25.4 27.3 22.1 82 2.2 N 15 20 8 11 1005.2 1005.0 0.0
14/02:30am 25.3 27.1 21.8 81 2.3 N 15 19 8 10 1005.0 1004.8 0.0
14/02:00am 25.4 27.1 21.7 80 2.5 N 15 20 8 11 1005.0 1004.8 0.0
14/01:30am 25.4 26.7 21.7 80 2.5 NNW 17 22 9 12 1005.7 1005.5 0.0
14/01:00am 25.4 26.1 21.5 79 2.6 N 20 30 11 16 1005.1 1004.9 0.0
14/12:36am 25.3 25.2 21.4 79 2.6 N 24 35 13 19 1005.3 1005.1 0.0
14/12:30am 25.4 25.3 21.5 79 2.6 N 24 35 13 19 1005.5 1005.3 0.0
14/12:01am 25.3 26.1 21.8 81 2.3 N 20 28 11 15 1005.9 1005.7 0.0
14/12:00am 25.3 26.1 21.8 81 2.3 N 20 26 11 14 1005.9 1005.7 0.0
 
Date/Time
EST
Temp
°C
App
Temp
°C
Dew
Point
°C
Rel
Hum
%
Delta-T
°C
Wind Press
QNH
hPa
Press
MSL
hPa
Rain since
9am
mm
Dir  Spd
km/h
Gust
km/h
Spd
kts
Gust
kts
13/11:30pm 25.3 26.1 21.8 81 2.3 N 20 26 11 14 1006.6 1006.4 0.0
13/11:00pm 25.1 25.8 21.6 81 2.3 N 20 28 11 15 1006.8 1006.6 0.0
13/10:30pm 24.9 25.6 21.2 80 2.4 N 19 22 10 12 1007.1 1006.9 0.0
13/10:00pm 25.2 25.8 21.1 78 2.7 N 19 26 10 14 1007.5 1007.3 0.0
13/09:30pm 25.0 26.2 20.7 77 2.8 N 15 19 8 10 1007.6 1007.4 0.0
13/09:00pm 25.0 25.7 20.5 76 2.9 N 17 22 9 12 1007.4 1007.2 0.0
13/08:30pm 25.0 25.3 20.3 75 3.1 N 19 26 10 14 1007.4 1007.2 0.0
13/08:00pm 25.1 24.7 20.1 74 3.3 N 22 28 12 15 1007.3 1007.1 0.0
13/07:30pm 25.4 24.9 20.0 72 3.5 NNE 22 28 12 15 1007.3 1007.1 0.0
13/07:00pm 25.5 25.2 19.6 70 3.8 N 20 24 11 13 1007.7 1007.5 0.0
13/06:30pm 25.5 25.0 19.2 68 4.0 N 20 24 11 13 1007.5 1007.3 0.0
13/06:00pm 25.9 25.2 19.5 68 4.1 N 22 32 12 17 1007.3 1007.1 0.0
13/05:30pm 26.1 24.4 19.0 65 4.6 N 26 32 14 17 1006.4 1006.2 0.0
13/05:00pm 26.4 24.4 18.3 61 5.2 N 26 33 14 18 1005.6 1005.4 0.0
13/04:30pm 26.9 25.1 18.7 60 5.2 N 26 33 14 18 1005.2 1005.0 0.0
13/04:00pm 27.3 25.4 18.6 59 5.6 N 26 32 14 17 1005.3 1005.1 0.0
13/03:30pm 28.2 25.4 17.4 52 6.8 N 28 39 15 21 1005.8 1005.6 0.0
13/03:00pm 28.8 26.3 18.0 52 6.9 N 28 37 15 20 1006.4 1006.2 0.0
13/02:30pm 27.4 25.1 17.6 55 6.2 NNE 26 37 14 20 1006.8 1006.6 0.0
13/02:00pm 28.2 26.1 18.9 57 6.0 NNE 28 35 15 19 1007.4 1007.2 0.0
13/01:30pm 28.5 26.9 18.3 54 6.5 NNE 24 33 13 18 1007.8 1007.6 0.0
13/01:00pm 28.3 26.5 18.7 56 6.2 NNE 26 33 14 18 1008.4 1008.2 0.0
13/12:30pm 28.1 25.8 17.6 53 6.6 NNE 26 35 14 19 1008.7 1008.5 0.0
13/12:00pm 29.2 28.3 18.3 51 7.0 NNE 20 35 11 19 1009.0 1008.8 0.0
13/11:30am 29.0 28.1 18.1 51 7.0 NNE 20 33 11 18 1009.5 1009.3 0.0
13/11:00am 28.3 27.6 18.7 56 6.2 N 20 30 11 16 1010.0 1009.8 0.0
13/10:30am 28.3 27.4 18.1 54 6.5 N 20 28 11 15 1010.0 1009.8 0.0
13/10:00am 28.2 26.8 17.1 51 7.0 NNE 20 30 11 16 1009.9 1009.7 0.0
13/09:30am 27.3 26.2 17.2 54 6.3 NNE 19 28 10 15 1010.4 1010.2 0.0
13/09:00am 27.4 27.0 18.1 57 5.9 N 17 26 9 14 1010.7 1010.5 0.0
13/08:30am 25.6 25.7 18.3 64 4.6 N 15 19 8 10 1010.8 1010.6 0.0
13/08:00am 26.3 27.8 18.9 63 4.7 NNW 9 15 5 8 1010.5 1010.3 0.0
13/07:30am 25.5 26.8 19.2 68 4.0 N 11 19 6 10 1010.1 1009.9 0.0
13/07:00am 24.1 27.1 19.2 74 3.1 ENE 2 9 1 5 1010.0 1009.8 0.0
13/06:30am 22.5 25.7 18.9 80 2.3 CALM 0 4 0 2 1010.2 1010.0 0.0
13/06:00am 20.9 22.0 17.9 83 1.9 SE 9 13 5 7 1009.9 1009.7 0.0
13/05:30am 19.9 22.3 18.0 89 1.2 S 2 6 1 3 1009.8 1009.6 0.0
13/05:00am 18.9 20.0 17.2 90 1.0 SSW 7 9 4 5 1009.9 1009.7 0.0
13/04:30am 19.1 19.8 17.1 88 1.2 S 9 11 5 6 1009.9 1009.7 0.0
13/04:00am 19.3 21.5 17.4 89 1.2 S 2 7 1 4 1009.8 1009.6 0.0
13/03:30am 19.2 20.0 17.3 89 1.2 SSW 9 11 5 6 1009.7 1009.5 0.0
13/03:00am 19.4 20.8 17.9 91 0.9 S 7 11 4 6 1009.8 1009.6 0.0
13/02:30am 18.9 20.1 17.4 91 0.9 SSW 7 9 4 5 1010.1 1009.9 0.0
13/02:00am 18.7 21.1 16.9 89 1.1 CALM 0 0 0 0 1010.2 1010.0 0.0
13/01:30am 19.0 21.3 16.8 87 1.3 CALM 0 0 0 0 1010.6 1010.4 0.0
13/01:00am 19.9 22.6 17.7 87 1.4 CALM 0 0 0 0 1011.0 1010.8 0.0
13/12:30am 20.1 22.8 17.7 86 1.5 CALM 0 0 0 0 1011.6 1011.4 0.0
13/12:00am 20.1 21.6 17.5 85 1.6 SSE 6 6 3 3 1012.1 1011.9 0.0
 
Date/Time
EST
Temp
°C
App
Temp
°C
Dew
Point
°C
Rel
Hum
%
Delta-T
°C
Wind Press
QNH
hPa
Press
MSL
hPa
Rain since
9am
mm
Dir  Spd
km/h
Gust
km/h
Spd
kts
Gust
kts
12/11:30pm 20.5 23.1 17.5 83 1.8 CALM 0 6 0 3 1012.3 1012.1 0.0
12/11:00pm 21.0 22.5 17.6 81 2.1 ESE 6 7 3 4 1012.5 1012.3 0.0
12/10:30pm 21.6 23.1 17.6 78 2.5 E 6 7 3 4 1012.8 1012.6 0.0
12/10:00pm 21.9 22.8 17.5 76 2.7 E 9 11 5 6 1012.5 1012.3 0.0
12/09:30pm 22.6 23.0 17.3 72 3.3 ENE 11 13 6 7 1012.6 1012.4 0.0
12/09:00pm 23.3 23.3 17.3 69 3.7 ENE 13 17 7 9 1012.4 1012.2 0.0
12/08:30pm 23.6 23.6 17.3 67 3.9 ENE 13 19 7 10 1012.5 1012.3 0.0
12/08:00pm 24.2 23.7 17.7 67 4.1 NE 17 24 9 13 1012.3 1012.1 0.0
12/07:30pm 24.4 23.9 17.9 67 4.1 NE 17 22 9 12 1012.5 1012.3 0.0
12/07:00pm 24.4 23.6 18.1 68 4.0 NE 19 24 10 13 1012.1 1011.9 0.0
12/06:30pm 24.7 24.1 18.4 68 4.0 NE 19 26 10 14 1011.8 1011.6 0.0
12/06:00pm 25.1 23.9 18.3 66 4.3 NE 22 30 12 16 1011.6 1011.4 0.0
12/05:30pm 25.5 23.7 17.9 63 4.8 NE 24 32 13 17 1011.3 1011.1 0.0
12/05:00pm 26.0 24.2 17.9 61 5.1 ENE 24 32 13 17 1010.8 1010.6 0.0
12/04:30pm 27.3 25.7 18.3 58 5.7 NE 24 33 13 18 1010.4 1010.2 0.0
12/04:00pm 28.2 27.2 18.9 57 6.0 NE 22 32 12 17 1010.2 1010.0 0.0
12/03:30pm 27.6 26.2 18.0 55 6.1 ENE 22 32 12 17 1010.3 1010.1 0.0
12/03:00pm 29.1 28.5 18.8 53 6.7 ENE 20 26 11 14 1010.5 1010.3 0.0
12/02:30pm 29.0 28.1 18.1 51 7.0 NE 20 30 11 16 1010.8 1010.6 0.0
12/02:00pm 29.1 27.9 17.6 50 7.3 ENE 20 30 11 16 1011.2 1011.0 0.0
12/01:30pm 28.3 27.2 17.8 53 6.7 E 20 32 11 17 1011.4 1011.2 0.0
12/01:00pm 29.1 28.3 17.9 50 7.1 E 19 30 10 16 1012.0 1011.8 0.0
12/12:30pm 28.0 27.4 17.5 52 6.6 E 17 30 9 16 1012.3 1012.1 0.0
12/12:00pm 27.2 26.3 17.7 56 6.0 E 19 28 10 15 1012.4 1012.2 0.0
12/11:30am 27.8 27.2 17.6 53 6.4 E 17 24 9 13 1012.7 1012.5 0.0
12/11:00am 27.8 27.5 18.2 56 6.1 E 17 24 9 13 1012.9 1012.7 0.0
12/10:30am 27.6 26.7 16.9 52 6.7 ESE 17 24 9 13 1013.2 1013.0 0.0
12/10:00am 26.8 26.3 18.6 60 5.2 E 19 30 10 16 1013.5 1013.3 0.0
12/09:30am 26.6 26.4 17.7 58 5.6 E 15 22 8 12 1013.9 1013.7 0.0
12/09:00am 26.9 27.7 18.2 59 5.5 E 11 20 6 11 1013.8 1013.6 0.0
12/08:30am 26.1 26.7 17.7 60 5.3 ESE 11 19 6 10 1013.9 1013.7 0.0
12/08:00am 25.9 26.5 18.6 64 4.6 ESE 13 20 7 11 1014.1 1013.9 0.0
12/07:30am 24.9 25.8 19.3 71 3.6 SE 13 17 7 9 1014.3 1014.1 0.0
12/07:00am 23.5 24.8 19.2 77 2.7 SE 11 13 6 7 1014.2 1014.0 0.0
12/06:30am 21.9 23.1 19.1 84 1.8 SSE 11 15 6 8 1013.9 1013.7 0.0
12/06:00am 20.1 21.2 18.8 92 0.8 S 11 13 6 7 1013.7 1013.5 0.0
12/05:30am 19.3 20.6 18.5 95 0.5 S 9 11 5 6 1013.4 1013.2 0.0
12/05:00am 18.8 19.8 17.8 94 0.6 S 9 11 5 6 1013.3 1013.1 0.0
12/04:30am 18.9 20.3 17.7 93 0.7 S 7 9 4 5 1012.9 1012.7 0.0
12/04:00am 19.1 20.5 17.9 93 0.7 S 7 11 4 6 1012.8 1012.6 0.0
12/03:30am 19.3 20.4 18.0 92 0.8 SSE 9 13 5 7 1012.8 1012.6 0.0
12/03:00am 19.7 20.6 18.4 92 0.8 SSE 11 15 6 8 1013.0 1012.8 0.0
12/02:30am 19.7 20.9 18.2 91 0.9 SSE 9 13 5 7 1013.0 1012.8 0.0
12/02:00am 19.8 20.9 18.1 90 1.1 S 9 13 5 7 1013.5 1013.3 0.0
12/01:30am 20.0 21.2 18.3 90 1.1 S 9 13 5 7 1013.6 1013.4 0.0
12/01:00am 20.2 21.4 18.3 89 1.2 SSE 9 11 5 6 1014.0 1013.8 0.0
12/12:30am 20.5 21.4 18.4 88 1.3 S 11 17 6 9 1014.5 1014.3 0.0
12/12:00am 20.9 21.9 18.7 87 1.4 SSE 11 15 6 8 1014.6 1014.4 0.0
 
Date/Time
EST
Temp
°C
App
Temp
°C
Dew
Point
°C
Rel
Hum
%
Delta-T
°C
Wind Press
QNH
hPa
Press
MSL
hPa
Rain since
9am
mm
Dir  Spd
km/h
Gust
km/h
Spd
kts
Gust
kts
11/11:30pm 21.3 22.8 18.9 86 1.5 SSE 9 15 5 8 1014.8 1014.6 0.0
11/11:00pm 21.5 23.3 18.7 84 1.8 SSE 7 11 4 6 1015.3 1015.1 0.0
11/10:30pm 22.0 23.5 19.0 83 1.9 SE 9 13 5 7 1015.5 1015.3 0.0

Other Formats:

Comma delimited format used in spreadsheet applications
http://www.bom.gov.au/fwo/IDQ60801/IDQ60801.94387.axf

JavaScript Object Notation format (JSON) in row-major order
http://www.bom.gov.au/fwo/IDQ60801/IDQ60801.94387.json